createdAt,value
2022-11-02T00:00:06.053Z,20.15
2022-11-02T00:07:12.408Z,17.23
2022-11-02T00:09:40.080Z,18.05
2022-11-02T00:12:07.815Z,16.42
2022-11-02T00:14:35.481Z,17.60
2022-11-02T00:17:03.227Z,16.55
2022-11-02T00:19:32.980Z,15.27
2022-11-02T00:22:02.311Z,16.50
2022-11-02T00:24:32.639Z,15.90
2022-11-02T00:27:00.570Z,16.98
2022-11-02T00:29:33.477Z,16.65
2022-11-02T00:32:01.968Z,21.02
2022-11-02T00:34:29.417Z,20.25
2022-11-02T00:36:56.876Z,24.15
2022-11-02T00:39:24.376Z,19.50
2022-11-02T00:41:54.345Z,18.38
2022-11-02T00:44:22.132Z,21.52
2022-11-02T00:46:49.691Z,20.45
2022-11-02T00:49:18.552Z,19.10
2022-11-02T00:51:46.533Z,18.33
2022-11-02T00:54:15.796Z,21.73
2022-11-02T00:56:43.357Z,18.30
2022-11-02T00:59:10.978Z,17.25
2022-11-02T01:01:38.737Z,18.10
2022-11-02T01:04:06.401Z,16.13
2022-11-02T01:06:33.990Z,16.95
2022-11-02T01:09:01.398Z,17.10
2022-11-02T01:11:28.919Z,18.05
2022-11-02T01:13:56.428Z,15.68
2022-11-02T01:16:23.940Z,16.02
2022-11-02T01:18:53.574Z,17.65
2022-11-02T01:21:22.155Z,16.77
2022-11-02T01:23:50.160Z,16.15
2022-11-02T01:26:18.456Z,16.75
2022-11-02T01:28:45.961Z,19.88
2022-11-02T01:31:14.157Z,19.40
2022-11-02T01:33:45.801Z,11.60
2022-11-02T01:36:15.069Z,12.95
2022-11-02T01:38:42.651Z,13.32
2022-11-02T01:41:12.447Z,17.60
2022-11-02T01:43:49.264Z,15.70
2022-11-02T01:46:32.046Z,15.25
2022-11-02T01:49:07.565Z,15.70
2022-11-02T01:51:44.252Z,15.63
2022-11-02T01:54:16.174Z,15.27
2022-11-02T01:56:48.577Z,15.30
2022-11-02T01:59:21.985Z,22.85
2022-11-02T02:01:49.924Z,15.38
2022-11-02T02:04:17.722Z,16.17
2022-11-02T02:06:45.308Z,16.83
2022-11-02T02:09:14.913Z,15.52
2022-11-02T02:11:42.718Z,19.95
2022-11-02T02:14:20.899Z,17.25
2022-11-02T02:17:14.035Z,16.10
2022-11-02T02:20:02.822Z,15.63
2022-11-02T02:22:52.194Z,14.38
2022-11-02T02:25:50.473Z,15.50
2022-11-02T02:28:43.559Z,15.50
2022-11-02T02:31:33.290Z,16.63
2022-11-02T02:34:15.225Z,15.25
2022-11-02T02:36:54.451Z,16.02
2022-11-02T02:39:33.850Z,14.45
2022-11-02T02:42:24.518Z,14.43
2022-11-02T02:45:23.074Z,14.65
2022-11-02T02:48:06.428Z,14.02
2022-11-02T02:50:40.712Z,16.05
2022-11-02T02:53:09.806Z,15.07
2022-11-02T02:55:44.766Z,16.40
2022-11-02T02:58:18.723Z,15.07
2022-11-02T03:00:46.708Z,14.90
2022-11-02T03:03:20.254Z,13.80
2022-11-02T03:06:14.391Z,13.90
2022-11-02T03:08:52.808Z,14.57
2022-11-02T03:11:22.078Z,14.27
2022-11-02T03:13:49.893Z,14.30
2022-11-02T03:16:27.510Z,15.60
2022-11-02T03:19:20.132Z,13.35
2022-11-02T03:22:00.181Z,12.63
2022-11-02T03:25:03.356Z,14.07
2022-11-02T03:27:37.594Z,14.48
2022-11-02T03:30:15.939Z,11.88
2022-11-02T03:33:16.846Z,13.10
2022-11-02T03:36:15.371Z,10.55
2022-11-02T03:38:56.085Z,9.55
2022-11-02T03:41:27.140Z,11.90
2022-11-02T03:44:08.914Z,11.43
2022-11-02T03:46:40.397Z,10.02
2022-11-02T03:49:13.476Z,10.57
2022-11-02T03:51:45.267Z,9.20
2022-11-02T03:54:26.018Z,10.73
2022-11-02T03:56:58.353Z,10.20
2022-11-02T03:59:30.381Z,9.25
2022-11-02T04:01:59.906Z,11.48
2022-11-02T04:04:28.797Z,10.85
2022-11-02T04:06:56.951Z,9.63
2022-11-02T04:09:24.534Z,9.48
2022-11-02T04:12:10.679Z,10.55
2022-11-02T04:14:38.379Z,11.18
2022-11-02T04:19:59.745Z,20.83
2022-11-02T04:22:46.527Z,22.15
2022-11-02T04:25:19.490Z,17.45
2022-11-02T04:27:54.648Z,12.80
2022-11-02T04:30:27.702Z,23.45
2022-11-02T04:33:15.051Z,37.42
2022-11-02T04:35:51.826Z,35.95
2022-11-02T04:38:39.099Z,38.97
2022-11-02T04:41:27.735Z,39.15
2022-11-02T04:43:55.720Z,39.38
2022-11-02T04:46:25.448Z,31.30
2022-11-02T04:48:53.369Z,41.50
2022-11-02T04:51:22.090Z,39.17
2022-11-02T04:53:53.085Z,29.10
2022-11-02T04:56:21.865Z,27.70
2022-11-02T04:58:51.458Z,34.78
2022-11-02T05:01:22.824Z,27.25
2022-11-02T05:03:51.878Z,24.80
2022-11-02T05:06:21.293Z,20.48
2022-11-02T05:08:50.137Z,17.20
2022-11-02T05:11:18.837Z,17.25
2022-11-02T05:13:50.648Z,25.02
2022-11-02T05:16:19.636Z,21.45
2022-11-02T05:18:49.398Z,18.88
2022-11-02T05:21:18.624Z,23.17
2022-11-02T05:23:46.473Z,21.92
2022-11-02T05:26:14.781Z,11.95
2022-11-02T05:28:46.643Z,13.10
2022-11-02T05:31:14.389Z,24.00
2022-11-02T05:33:41.939Z,15.73
2022-11-02T05:36:14.315Z,15.65
2022-11-02T05:38:45.366Z,17.60
2022-11-02T05:41:13.849Z,21.88
2022-11-02T05:44:07.153Z,20.55
2022-11-02T06:00:36.756Z,26.52
2022-11-02T06:03:04.608Z,30.20
2022-11-02T06:05:32.430Z,21.83
2022-11-02T06:08:01.809Z,21.00
2022-11-02T06:13:56.085Z,26.20
2022-11-02T06:16:23.465Z,17.02
2022-11-02T06:19:16.937Z,22.45
2022-11-02T06:22:16.342Z,18.02
2022-11-02T06:24:50.519Z,25.77
2022-11-02T06:27:20.556Z,22.73
2022-11-02T06:29:51.471Z,22.70
2022-11-02T06:54:36.827Z,15.88
2022-11-02T06:57:13.237Z,13.50
2022-11-02T06:59:43.050Z,11.63
2022-11-02T07:02:10.870Z,14.60
2022-11-02T07:04:42.271Z,11.93
2022-11-02T07:07:21.401Z,12.45
2022-11-02T07:09:51.782Z,14.70
2022-11-02T07:13:00.993Z,11.23
2022-11-02T07:18:11.462Z,10.38
2022-11-02T07:20:19.443Z,9.73
2022-11-02T07:23:35.800Z,9.68
2022-11-02T07:26:05.134Z,10.38
2022-11-02T07:28:32.746Z,10.02
2022-11-02T07:31:00.531Z,10.50
2022-11-02T07:33:27.977Z,9.75
2022-11-02T07:35:55.407Z,10.07
2022-11-02T07:38:22.965Z,9.82
2022-11-02T07:40:53.207Z,9.20
2022-11-02T07:43:20.786Z,9.45
2022-11-02T07:45:56.248Z,9.10
2022-11-02T07:48:23.736Z,8.52
2022-11-02T07:50:51.314Z,7.47
2022-11-02T07:53:18.826Z,7.63
2022-11-02T07:55:46.502Z,6.63
2022-11-02T07:58:14.241Z,6.13
2022-11-02T08:00:42.587Z,8.15
2022-11-02T08:03:12.070Z,6.22
2022-11-02T08:05:43.397Z,6.20
2022-11-02T08:08:14.338Z,7.13
2022-11-02T08:10:43.094Z,6.55
2022-11-02T08:13:14.780Z,6.40
2022-11-02T08:15:42.488Z,6.32
2022-11-02T08:18:24.041Z,6.20
2022-11-02T08:20:52.457Z,7.07
2022-11-02T08:23:21.090Z,6.40
2022-11-02T08:25:50.661Z,5.68
2022-11-02T08:28:23.635Z,6.32
2022-11-02T08:30:51.358Z,7.80
2022-11-02T08:33:20.409Z,8.65
2022-11-02T08:35:50.498Z,7.43
2022-11-02T08:38:18.556Z,7.55
2022-11-02T08:40:46.494Z,6.63
2022-11-02T08:43:15.457Z,9.43
2022-11-02T08:46:14.251Z,8.02
2022-11-02T08:48:33.393Z,8.45
2022-11-02T08:51:01.022Z,10.65
2022-11-02T08:53:28.738Z,8.27
2022-11-02T08:55:59.389Z,10.95
2022-11-02T08:58:26.830Z,10.23
2022-11-02T09:00:54.649Z,9.00
2022-11-02T09:03:27.340Z,7.93
2022-11-02T09:06:00.136Z,11.40
2022-11-02T09:08:29.044Z,8.38
2022-11-02T09:11:02.142Z,10.80
2022-11-02T09:13:29.843Z,9.90
2022-11-02T09:15:58.994Z,8.32
2022-11-02T09:18:26.680Z,10.88
2022-11-02T09:20:54.175Z,10.50
2022-11-02T09:23:22.198Z,9.70
2022-11-02T09:25:50.319Z,8.80
2022-11-02T09:28:17.751Z,7.93
2022-11-02T09:30:45.595Z,8.13
2022-11-02T09:33:13.582Z,7.95
2022-11-02T09:35:45.162Z,10.15
2022-11-02T09:38:13.249Z,9.60
2022-11-02T09:40:44.974Z,11.15
2022-11-02T09:43:21.314Z,11.82
2022-11-02T09:46:06.624Z,12.52
2022-11-02T09:48:40.768Z,13.30
2022-11-02T09:51:13.533Z,17.17
2022-11-02T09:53:46.604Z,14.95
2022-11-02T09:56:17.545Z,15.55
2022-11-02T09:58:47.531Z,16.55
2022-11-02T10:01:26.801Z,19.38
2022-11-02T10:04:22.815Z,19.60
2022-11-02T10:09:41.786Z,18.27
2022-11-02T10:12:16.845Z,19.30
2022-11-02T10:15:14.246Z,21.65
2022-11-02T10:17:43.631Z,19.77
2022-11-02T10:20:19.598Z,18.80
2022-11-02T10:22:47.764Z,22.60
2022-11-02T10:25:17.003Z,18.17
2022-11-02T10:27:48.780Z,19.55
2022-11-02T10:30:19.500Z,20.58
2022-11-02T10:32:55.112Z,18.58
2022-11-02T10:39:08.915Z,19.77
2022-11-02T10:41:52.465Z,19.10
2022-11-02T10:44:40.942Z,20.23
2022-11-02T10:47:34.412Z,17.63
2022-11-02T10:50:29.783Z,17.65
2022-11-02T10:53:20.358Z,20.90
2022-11-02T10:56:06.841Z,18.27
2022-11-02T10:58:38.794Z,19.20
2022-11-02T11:01:08.401Z,17.42
2022-11-02T11:03:52.543Z,18.40
2022-11-02T11:06:20.614Z,19.58
2022-11-02T11:08:53.616Z,18.08
2022-11-02T11:11:22.205Z,18.80
2022-11-02T11:19:54.434Z,19.33
2022-11-02T11:22:33.398Z,19.13
2022-11-02T11:25:12.855Z,19.20
2022-11-02T11:27:54.817Z,21.33
2022-11-02T11:30:58.247Z,19.17
2022-11-02T11:33:21.425Z,21.73
2022-11-02T11:35:51.122Z,21.25
2022-11-02T11:38:22.651Z,20.85
2022-11-02T11:40:54.322Z,19.85
2022-11-02T11:43:35.132Z,23.20
2022-11-02T11:46:08.393Z,23.25
2022-11-02T11:49:15.074Z,22.27
2022-11-02T11:51:50.927Z,21.58
2022-11-02T11:54:34.035Z,24.15
2022-11-02T11:57:28.173Z,25.08
2022-11-02T11:59:59.922Z,20.95
2022-11-02T12:02:42.714Z,21.92
2022-11-02T12:05:17.560Z,22.90
2022-11-02T12:08:12.912Z,24.75
2022-11-02T12:10:49.280Z,21.58
2022-11-02T12:13:16.583Z,22.15
2022-11-02T12:16:29.025Z,26.73
2022-11-02T12:21:26.874Z,28.15
2022-11-02T12:23:57.112Z,24.08
2022-11-02T12:26:45.703Z,23.45
2022-11-02T12:29:26.236Z,26.95
2022-11-02T12:32:09.038Z,27.70
2022-11-02T12:35:15.654Z,28.00
2022-11-02T12:37:50.748Z,27.27
2022-11-02T12:43:20.630Z,32.25
2022-11-02T12:46:07.735Z,24.52
2022-11-02T12:48:45.863Z,25.33
2022-11-02T12:51:43.789Z,26.75
2022-11-02T12:54:14.536Z,25.08
2022-11-02T12:56:50.172Z,28.65
2022-11-02T12:59:28.497Z,25.88
2022-11-02T13:02:18.942Z,32.40
2022-11-02T13:05:03.831Z,27.80
2022-11-02T13:07:39.110Z,27.37
2022-11-02T13:12:59.049Z,25.77
2022-11-02T13:15:29.483Z,25.75
2022-11-02T13:18:02.737Z,29.20
2022-11-02T13:20:41.391Z,26.00
2022-11-02T13:23:36.688Z,25.35
2022-11-02T13:26:11.277Z,26.20
2022-11-02T13:28:50.525Z,27.63
2022-11-02T13:31:33.525Z,25.58
2022-11-02T13:34:06.709Z,24.23
2022-11-02T13:36:38.289Z,27.77
2022-11-02T13:39:17.538Z,25.88
2022-11-02T13:42:25.791Z,24.40
2022-11-02T13:45:02.162Z,22.92
2022-11-02T13:47:53.458Z,23.80
2022-11-02T13:50:24.175Z,25.13
2022-11-02T13:53:09.004Z,23.08
2022-11-02T13:55:46.924Z,21.63
2022-11-02T13:58:37.573Z,20.20
2022-11-02T14:01:08.131Z,17.27
2022-11-02T14:03:47.567Z,17.73
2022-11-02T14:06:17.985Z,19.08
2022-11-02T14:08:56.766Z,17.38
2022-11-02T14:11:36.556Z,19.42
2022-11-02T14:14:04.870Z,17.73
2022-11-02T14:16:50.531Z,16.02
2022-11-02T14:19:19.503Z,17.02
2022-11-02T14:21:50.728Z,17.63
2022-11-02T14:24:39.873Z,16.50
2022-11-02T14:27:10.432Z,17.67
2022-11-02T14:29:46.885Z,18.30
2022-11-02T14:32:17.198Z,20.23
2022-11-02T14:35:21.342Z,14.65
2022-11-02T14:38:07.492Z,16.00
2022-11-02T14:41:07.474Z,18.67
2022-11-02T14:44:16.640Z,19.00
2022-11-02T14:47:01.455Z,18.23
2022-11-02T14:49:36.920Z,19.13
2022-11-02T14:55:21.684Z,17.05
2022-11-02T14:58:18.652Z,19.67
2022-11-02T15:00:49.127Z,19.20
2022-11-02T15:03:25.557Z,18.80
2022-11-02T15:06:15.560Z,18.10
2022-11-02T15:09:00.347Z,18.25
2022-11-02T15:11:48.558Z,19.70
2022-11-02T15:14:39.025Z,18.35
2022-11-02T15:17:15.828Z,18.88
2022-11-02T15:19:49.809Z,20.83
2022-11-02T15:22:32.499Z,22.52
2022-11-02T15:25:09.358Z,21.52
2022-11-02T15:27:40.612Z,19.77
2022-11-02T15:30:14.947Z,18.80
2022-11-02T15:33:05.910Z,18.98
2022-11-02T15:35:36.973Z,18.88
2022-11-02T15:38:29.557Z,18.25
2022-11-02T15:41:19.385Z,22.33
2022-11-02T15:44:11.513Z,19.75
2022-11-02T15:47:13.731Z,21.70
2022-11-02T15:49:44.149Z,24.30
2022-11-02T15:52:35.545Z,18.42
2022-11-02T15:55:20.680Z,21.17
2022-11-02T15:58:01.352Z,22.77
2022-11-02T16:00:31.913Z,25.77
2022-11-02T16:03:07.339Z,26.83
2022-11-02T16:08:32.655Z,22.40
2022-11-02T16:11:05.233Z,25.33
2022-11-02T16:13:48.795Z,23.92
2022-11-02T16:16:23.156Z,24.38
2022-11-02T16:18:52.822Z,21.50
2022-11-02T16:21:21.569Z,24.75
2022-11-02T16:23:59.937Z,19.23
2022-11-02T16:26:29.811Z,20.05
2022-11-02T16:28:59.572Z,21.08
2022-11-02T16:31:32.093Z,23.73
2022-11-02T16:34:02.797Z,22.35
2022-11-02T16:36:32.480Z,20.95
2022-11-02T16:39:27.221Z,20.88
2022-11-02T16:41:58.238Z,20.02
2022-11-02T16:44:32.497Z,19.20
2022-11-02T16:47:06.643Z,19.00
2022-11-02T16:49:50.115Z,19.40
2022-11-02T16:52:21.606Z,21.38
2022-11-02T16:54:49.142Z,19.30
2022-11-02T16:57:23.764Z,20.98
2022-11-02T17:00:01.465Z,17.38
2022-11-02T17:02:28.973Z,19.40
2022-11-02T17:05:05.859Z,21.80
2022-11-02T17:07:39.213Z,22.08
2022-11-02T17:10:08.831Z,20.60
2022-11-02T17:12:43.590Z,18.40
2022-11-02T17:15:17.117Z,19.90
2022-11-02T17:17:45.194Z,19.98
2022-11-02T17:20:15.331Z,17.52
2022-11-02T17:22:56.991Z,18.13
2022-11-02T17:25:24.525Z,20.25
2022-11-02T17:27:53.893Z,18.80
2022-11-02T17:30:30.540Z,18.75
2022-11-02T17:32:58.811Z,20.38
2022-11-02T17:35:27.733Z,21.42
2022-11-02T17:37:55.419Z,18.35
2022-11-02T17:40:26.002Z,21.10
2022-11-02T17:42:59.805Z,18.65
2022-11-02T17:45:33.611Z,19.10
2022-11-02T17:48:02.371Z,22.20
2022-11-02T17:50:33.073Z,19.10
2022-11-02T17:53:02.467Z,23.88
2022-11-02T17:55:32.396Z,19.45
2022-11-02T17:58:00.765Z,19.52
2022-11-02T18:00:29.025Z,23.98
2022-11-02T18:03:00.400Z,22.45
2022-11-02T18:05:35.504Z,20.20
2022-11-02T18:08:05.412Z,22.50
2022-11-02T18:10:44.130Z,20.25
2022-11-02T18:13:18.279Z,25.13
2022-11-02T18:15:46.693Z,22.95
2022-11-02T18:18:17.112Z,37.15
2022-11-02T18:20:44.828Z,49.15
2022-11-02T18:23:19.457Z,34.42
2022-11-02T18:25:56.619Z,27.27
2022-11-02T18:28:47.493Z,23.95
2022-11-02T18:31:15.201Z,21.50
2022-11-02T18:33:43.594Z,19.15
2022-11-02T18:36:11.584Z,19.63
2022-11-02T18:38:39.340Z,21.35
2022-11-02T18:41:27.254Z,22.52
2022-11-02T18:44:03.512Z,25.27
2022-11-02T18:46:33.973Z,21.73
2022-11-02T18:49:01.888Z,21.45
2022-11-02T18:51:29.574Z,21.88
2022-11-02T18:53:59.995Z,20.58
2022-11-02T18:57:48.014Z,20.67
2022-11-02T19:00:16.035Z,22.45
2022-11-02T19:02:43.723Z,23.20
2022-11-02T19:05:34.068Z,20.00
2022-11-02T19:08:20.574Z,21.33
2022-11-02T19:10:48.486Z,21.80
2022-11-02T19:13:16.343Z,20.77
2022-11-02T19:15:46.299Z,21.55
2022-11-02T19:18:13.936Z,21.52
2022-11-02T19:20:41.446Z,23.00
2022-11-02T19:23:10.171Z,24.27
2022-11-02T19:25:37.990Z,22.92
2022-11-02T19:28:05.849Z,22.33
2022-11-02T19:30:33.589Z,22.48
2022-11-02T19:33:01.220Z,24.63
2022-11-02T19:35:28.795Z,21.80
2022-11-02T19:37:58.248Z,24.10
2022-11-02T19:40:25.856Z,23.27
2022-11-02T19:42:53.519Z,22.25
2022-11-02T19:45:21.336Z,24.30
2022-11-02T19:47:50.244Z,21.90
2022-11-02T19:50:17.907Z,22.55
2022-11-02T19:52:46.503Z,22.92
2022-11-02T19:55:14.097Z,22.05
2022-11-02T19:57:41.747Z,20.05
2022-11-02T20:00:09.915Z,21.08
2022-11-02T20:02:37.594Z,20.20
2022-11-02T20:05:05.546Z,20.85
2022-11-02T20:07:33.123Z,22.17
2022-11-02T20:10:01.023Z,20.45
2022-11-02T20:12:28.626Z,22.13
2022-11-02T20:14:56.158Z,23.15
2022-11-02T20:17:41.958Z,21.98
2022-11-02T20:20:11.816Z,20.77
2022-11-02T20:22:39.607Z,21.52
2022-11-02T20:25:07.727Z,19.50
2022-11-02T20:27:39.312Z,19.55
2022-11-02T20:30:08.769Z,20.20
2022-11-02T20:32:37.380Z,20.42
2022-11-02T20:35:09.673Z,19.90
2022-11-02T20:37:40.656Z,20.70
2022-11-02T20:40:10.587Z,23.50
2022-11-02T20:42:39.500Z,21.30
2022-11-02T20:45:08.474Z,24.15
2022-11-02T20:47:37.013Z,42.75
2022-11-02T20:50:08.093Z,28.73
2022-11-02T20:52:46.595Z,23.65
2022-11-02T20:55:15.538Z,29.73
2022-11-02T20:57:46.932Z,24.90
2022-11-02T21:00:16.502Z,21.20
2022-11-02T21:02:48.942Z,22.20
2022-11-02T21:05:17.870Z,21.00
2022-11-02T21:07:46.800Z,19.63
2022-11-02T21:10:15.490Z,19.20
2022-11-02T21:13:01.767Z,23.20
2022-11-02T21:15:31.199Z,19.45
2022-11-02T21:18:00.326Z,22.85
2022-11-02T21:20:34.250Z,21.38
2022-11-02T21:23:05.242Z,24.63
2022-11-02T21:25:34.302Z,23.85
2022-11-02T21:28:02.244Z,24.27
2022-11-02T21:30:33.771Z,22.30
2022-11-02T21:33:01.448Z,23.05
2022-11-02T21:35:29.209Z,27.02
2022-11-02T21:37:58.548Z,22.42
2022-11-02T21:40:28.063Z,25.10
2022-11-02T21:42:55.658Z,27.67
2022-11-02T21:45:26.195Z,24.13
2022-11-02T21:47:58.779Z,22.25
2022-11-02T21:50:26.395Z,22.48
2022-11-02T21:52:54.074Z,23.90
2022-11-02T21:55:21.809Z,24.58
2022-11-02T21:57:49.581Z,22.17
2022-11-02T22:00:17.431Z,23.92
2022-11-02T22:02:45.166Z,25.17
2022-11-02T22:05:32.867Z,24.40
2022-11-02T22:08:20.793Z,21.67
2022-11-02T22:10:48.437Z,23.77
2022-11-02T22:13:34.525Z,23.48
2022-11-02T22:16:12.216Z,24.58
2022-11-02T22:18:39.982Z,22.73
2022-11-02T22:21:08.074Z,24.92
2022-11-02T22:23:36.129Z,22.83
2022-11-02T22:26:08.002Z,22.50
2022-11-02T22:28:40.701Z,21.30
2022-11-02T22:31:14.584Z,23.25
2022-11-02T22:33:43.874Z,24.67
2022-11-02T22:36:14.643Z,21.88
2022-11-02T22:38:53.957Z,23.10
2022-11-02T22:41:34.037Z,21.23
2022-11-02T22:44:05.805Z,23.77
2022-11-02T22:46:36.409Z,27.98
2022-11-02T22:49:05.250Z,23.42
2022-11-02T22:51:37.213Z,29.52
2022-11-02T22:54:07.836Z,27.42
2022-11-02T22:56:35.951Z,26.25
2022-11-02T22:59:04.283Z,26.88
2022-11-02T23:01:35.943Z,26.92
2022-11-02T23:04:05.069Z,26.85
2022-11-02T23:06:33.123Z,29.15
2022-11-02T23:09:01.447Z,27.45
2022-11-02T23:11:32.071Z,29.48
2022-11-02T23:14:00.941Z,36.40
2022-11-02T23:16:32.239Z,34.83
2022-11-02T23:19:43.019Z,33.95
2022-11-02T23:22:30.719Z,35.70
2022-11-02T23:25:12.564Z,32.17
2022-11-02T23:28:01.258Z,30.58
2022-11-02T23:30:50.855Z,28.83
2022-11-02T23:33:19.150Z,33.88
2022-11-02T23:36:04.926Z,29.40
2022-11-02T23:39:19.428Z,33.78
2022-11-02T23:41:46.987Z,32.10
2022-11-02T23:44:14.866Z,30.63
2022-11-02T23:46:44.724Z,32.35
2022-11-02T23:49:13.281Z,33.88
2022-11-02T23:51:59.714Z,32.85
2022-11-02T23:54:46.098Z,35.47
2022-11-02T23:57:13.687Z,36.00
2022-11-02T23:59:41.403Z,33.72
